sensor_id;sensor_type;location;lat;lon;timestamp;P1;durP1;ratioP1;P2;durP2;ratioP2
12689;SDS011;6409;56.294;14.480;2023-06-14T00:02:19;0.30;;;0.30;;
12689;SDS011;6409;56.294;14.480;2023-06-14T00:04:46;0.30;;;0.30;;
12689;SDS011;6409;56.294;14.480;2023-06-14T00:07:13;0.30;;;0.30;;
12689;SDS011;6409;56.294;14.480;2023-06-14T00:09:41;0.30;;;0.30;;
12689;SDS011;6409;56.294;14.480;2023-06-14T00:12:10;0.30;;;0.30;;
12689;SDS011;6409;56.294;14.480;2023-06-14T00:14:37;0.30;;;0.30;;
12689;SDS011;6409;56.294;14.480;2023-06-14T00:17:04;0.40;;;0.40;;
12689;SDS011;6409;56.294;14.480;2023-06-14T00:19:32;0.50;;;0.50;;
12689;SDS011;6409;56.294;14.480;2023-06-14T00:22:00;0.40;;;0.40;;
12689;SDS011;6409;56.294;14.480;2023-06-14T00:24:28;0.40;;;0.40;;
12689;SDS011;6409;56.294;14.480;2023-06-14T00:26:55;0.40;;;0.40;;
12689;SDS011;6409;56.294;14.480;2023-06-14T00:29:23;0.40;;;0.40;;
12689;SDS011;6409;56.294;14.480;2023-06-14T00:31:50;0.40;;;0.40;;
12689;SDS011;6409;56.294;14.480;2023-06-14T00:34:17;0.40;;;0.40;;
12689;SDS011;6409;56.294;14.480;2023-06-14T00:36:44;0.40;;;0.40;;
12689;SDS011;6409;56.294;14.480;2023-06-14T00:39:11;0.30;;;0.30;;
12689;SDS011;6409;56.294;14.480;2023-06-14T00:41:38;0.30;;;0.30;;
12689;SDS011;6409;56.294;14.480;2023-06-14T00:44:06;0.30;;;0.30;;
12689;SDS011;6409;56.294;14.480;2023-06-14T00:46:34;0.30;;;0.30;;
12689;SDS011;6409;56.294;14.480;2023-06-14T00:49:01;0.30;;;0.30;;
12689;SDS011;6409;56.294;14.480;2023-06-14T00:51:28;0.30;;;0.30;;
12689;SDS011;6409;56.294;14.480;2023-06-14T00:53:55;0.30;;;0.30;;
12689;SDS011;6409;56.294;14.480;2023-06-14T00:56:22;0.30;;;0.30;;
12689;SDS011;6409;56.294;14.480;2023-06-14T00:58:49;0.30;;;0.30;;
12689;SDS011;6409;56.294;14.480;2023-06-14T01:01:17;0.30;;;0.30;;
12689;SDS011;6409;56.294;14.480;2023-06-14T01:03:45;0.30;;;0.30;;
12689;SDS011;6409;56.294;14.480;2023-06-14T01:06:15;0.30;;;0.30;;
12689;SDS011;6409;56.294;14.480;2023-06-14T01:08:56;0.30;;;0.30;;
12689;SDS011;6409;56.294;14.480;2023-06-14T01:11:30;0.30;;;0.30;;
12689;SDS011;6409;56.294;14.480;2023-06-14T01:13:59;0.30;;;0.30;;
12689;SDS011;6409;56.294;14.480;2023-06-14T01:16:29;0.30;;;0.30;;
12689;SDS011;6409;56.294;14.480;2023-06-14T01:18:58;0.30;;;0.30;;
12689;SDS011;6409;56.294;14.480;2023-06-14T01:21:27;0.30;;;0.30;;
12689;SDS011;6409;56.294;14.480;2023-06-14T01:23:56;0.30;;;0.30;;
12689;SDS011;6409;56.294;14.480;2023-06-14T01:26:23;0.30;;;0.30;;
12689;SDS011;6409;56.294;14.480;2023-06-14T01:28:51;0.30;;;0.30;;
12689;SDS011;6409;56.294;14.480;2023-06-14T01:31:23;0.30;;;0.30;;
12689;SDS011;6409;56.294;14.480;2023-06-14T01:33:50;0.30;;;0.30;;
12689;SDS011;6409;56.294;14.480;2023-06-14T01:36:18;0.30;;;0.30;;
12689;SDS011;6409;56.294;14.480;2023-06-14T01:38:46;0.30;;;0.30;;
12689;SDS011;6409;56.294;14.480;2023-06-14T01:41:16;0.30;;;0.30;;
12689;SDS011;6409;56.294;14.480;2023-06-14T01:43:44;0.30;;;0.30;;
12689;SDS011;6409;56.294;14.480;2023-06-14T01:46:11;0.30;;;0.30;;
12689;SDS011;6409;56.294;14.480;2023-06-14T01:48:39;0.30;;;0.30;;
12689;SDS011;6409;56.294;14.480;2023-06-14T01:51:07;0.30;;;0.30;;
12689;SDS011;6409;56.294;14.480;2023-06-14T01:53:33;0.30;;;0.30;;
12689;SDS011;6409;56.294;14.480;2023-06-14T01:56:01;0.30;;;0.30;;
12689;SDS011;6409;56.294;14.480;2023-06-14T01:58:30;0.30;;;0.30;;
12689;SDS011;6409;56.294;14.480;2023-06-14T02:00:56;0.30;;;0.30;;
12689;SDS011;6409;56.294;14.480;2023-06-14T02:03:25;0.30;;;0.30;;
12689;SDS011;6409;56.294;14.480;2023-06-14T02:05:52;0.30;;;0.30;;
12689;SDS011;6409;56.294;14.480;2023-06-14T02:08:20;0.30;;;0.30;;
12689;SDS011;6409;56.294;14.480;2023-06-14T02:10:47;0.30;;;0.30;;
12689;SDS011;6409;56.294;14.480;2023-06-14T02:13:14;0.30;;;0.30;;
12689;SDS011;6409;56.294;14.480;2023-06-14T02:15:42;0.30;;;0.30;;
12689;SDS011;6409;56.294;14.480;2023-06-14T02:18:10;0.30;;;0.30;;
12689;SDS011;6409;56.294;14.480;2023-06-14T02:20:38;0.30;;;0.30;;
12689;SDS011;6409;56.294;14.480;2023-06-14T02:23:05;0.30;;;0.30;;
12689;SDS011;6409;56.294;14.480;2023-06-14T02:25:32;0.30;;;0.30;;
12689;SDS011;6409;56.294;14.480;2023-06-14T02:27:59;0.30;;;0.30;;
12689;SDS011;6409;56.294;14.480;2023-06-14T02:30:26;0.30;;;0.30;;
12689;SDS011;6409;56.294;14.480;2023-06-14T02:32:55;0.30;;;0.30;;
12689;SDS011;6409;56.294;14.480;2023-06-14T02:35:22;0.30;;;0.30;;
12689;SDS011;6409;56.294;14.480;2023-06-14T02:37:51;0.30;;;0.30;;
12689;SDS011;6409;56.294;14.480;2023-06-14T02:40:18;0.20;;;0.20;;
12689;SDS011;6409;56.294;14.480;2023-06-14T02:42:45;0.30;;;0.30;;
12689;SDS011;6409;56.294;14.480;2023-06-14T02:45:12;0.30;;;0.30;;
12689;SDS011;6409;56.294;14.480;2023-06-14T02:47:40;0.20;;;0.20;;
12689;SDS011;6409;56.294;14.480;2023-06-14T02:50:09;0.20;;;0.20;;
12689;SDS011;6409;56.294;14.480;2023-06-14T02:52:36;0.30;;;0.30;;
12689;SDS011;6409;56.294;14.480;2023-06-14T02:55:03;0.20;;;0.20;;
12689;SDS011;6409;56.294;14.480;2023-06-14T02:57:31;0.30;;;0.30;;
12689;SDS011;6409;56.294;14.480;2023-06-14T03:00:00;0.30;;;0.30;;
12689;SDS011;6409;56.294;14.480;2023-06-14T03:02:27;0.30;;;0.30;;
12689;SDS011;6409;56.294;14.480;2023-06-14T03:04:54;0.30;;;0.30;;
12689;SDS011;6409;56.294;14.480;2023-06-14T03:07:27;0.20;;;0.20;;
12689;SDS011;6409;56.294;14.480;2023-06-14T03:09:54;0.30;;;0.30;;
12689;SDS011;6409;56.294;14.480;2023-06-14T03:12:21;0.30;;;0.30;;
12689;SDS011;6409;56.294;14.480;2023-06-14T03:14:48;0.30;;;0.30;;
12689;SDS011;6409;56.294;14.480;2023-06-14T03:17:15;0.40;;;0.40;;
12689;SDS011;6409;56.294;14.480;2023-06-14T03:19:44;0.30;;;0.30;;
12689;SDS011;6409;56.294;14.480;2023-06-14T03:22:11;0.30;;;0.30;;
12689;SDS011;6409;56.294;14.480;2023-06-14T03:24:39;0.30;;;0.30;;
12689;SDS011;6409;56.294;14.480;2023-06-14T03:27:07;0.30;;;0.30;;
12689;SDS011;6409;56.294;14.480;2023-06-14T03:29:35;0.30;;;0.30;;
12689;SDS011;6409;56.294;14.480;2023-06-14T03:32:02;0.30;;;0.30;;
12689;SDS011;6409;56.294;14.480;2023-06-14T03:34:30;0.30;;;0.30;;
12689;SDS011;6409;56.294;14.480;2023-06-14T03:36:57;0.40;;;0.40;;
12689;SDS011;6409;56.294;14.480;2023-06-14T03:39:23;0.30;;;0.30;;
12689;SDS011;6409;56.294;14.480;2023-06-14T03:41:52;0.30;;;0.30;;
12689;SDS011;6409;56.294;14.480;2023-06-14T03:44:19;0.20;;;0.20;;
12689;SDS011;6409;56.294;14.480;2023-06-14T03:46:46;0.30;;;0.30;;
12689;SDS011;6409;56.294;14.480;2023-06-14T03:49:13;0.30;;;0.30;;
12689;SDS011;6409;56.294;14.480;2023-06-14T03:51:41;0.30;;;0.30;;
12689;SDS011;6409;56.294;14.480;2023-06-14T03:54:08;0.20;;;0.20;;
12689;SDS011;6409;56.294;14.480;2023-06-14T03:56:35;0.30;;;0.30;;
12689;SDS011;6409;56.294;14.480;2023-06-14T03:59:03;0.30;;;0.30;;
12689;SDS011;6409;56.294;14.480;2023-06-14T04:01:30;0.30;;;0.30;;
12689;SDS011;6409;56.294;14.480;2023-06-14T04:03:58;0.23;;;0.23;;
12689;SDS011;6409;56.294;14.480;2023-06-14T04:06:26;0.30;;;0.30;;
12689;SDS011;6409;56.294;14.480;2023-06-14T04:08:57;0.20;;;0.20;;
12689;SDS011;6409;56.294;14.480;2023-06-14T04:11:27;0.30;;;0.30;;
12689;SDS011;6409;56.294;14.480;2023-06-14T04:13:54;0.30;;;0.30;;
12689;SDS011;6409;56.294;14.480;2023-06-14T04:16:22;0.30;;;0.30;;
12689;SDS011;6409;56.294;14.480;2023-06-14T04:18:49;0.30;;;0.30;;
12689;SDS011;6409;56.294;14.480;2023-06-14T04:21:17;0.30;;;0.30;;
12689;SDS011;6409;56.294;14.480;2023-06-14T04:23:45;0.30;;;0.30;;
12689;SDS011;6409;56.294;14.480;2023-06-14T04:26:12;0.30;;;0.30;;
12689;SDS011;6409;56.294;14.480;2023-06-14T04:28:39;0.30;;;0.30;;
12689;SDS011;6409;56.294;14.480;2023-06-14T04:31:06;0.30;;;0.30;;
12689;SDS011;6409;56.294;14.480;2023-06-14T04:33:36;0.30;;;0.30;;
12689;SDS011;6409;56.294;14.480;2023-06-14T04:36:09;0.40;;;0.40;;
12689;SDS011;6409;56.294;14.480;2023-06-14T04:38:36;0.30;;;0.30;;
12689;SDS011;6409;56.294;14.480;2023-06-14T04:41:03;0.30;;;0.30;;
12689;SDS011;6409;56.294;14.480;2023-06-14T04:43:31;0.30;;;0.30;;
12689;SDS011;6409;56.294;14.480;2023-06-14T04:46:03;0.30;;;0.30;;
12689;SDS011;6409;56.294;14.480;2023-06-14T04:48:31;0.30;;;0.30;;
12689;SDS011;6409;56.294;14.480;2023-06-14T04:50:59;0.30;;;0.30;;
12689;SDS011;6409;56.294;14.480;2023-06-14T04:53:26;0.30;;;0.30;;
12689;SDS011;6409;56.294;14.480;2023-06-14T04:55:54;0.40;;;0.40;;
12689;SDS011;6409;56.294;14.480;2023-06-14T04:58:21;0.30;;;0.30;;
12689;SDS011;6409;56.294;14.480;2023-06-14T05:00:47;0.30;;;0.30;;
12689;SDS011;6409;56.294;14.480;2023-06-14T05:03:14;0.40;;;0.40;;
12689;SDS011;6409;56.294;14.480;2023-06-14T05:05:43;0.40;;;0.40;;
12689;SDS011;6409;56.294;14.480;2023-06-14T05:08:12;0.40;;;0.40;;
12689;SDS011;6409;56.294;14.480;2023-06-14T05:10:38;0.50;;;0.50;;
12689;SDS011;6409;56.294;14.480;2023-06-14T05:13:05;0.50;;;0.50;;
12689;SDS011;6409;56.294;14.480;2023-06-14T05:15:32;0.60;;;0.60;;
12689;SDS011;6409;56.294;14.480;2023-06-14T05:17:59;0.70;;;0.70;;
12689;SDS011;6409;56.294;14.480;2023-06-14T05:20:27;0.70;;;0.70;;
12689;SDS011;6409;56.294;14.480;2023-06-14T05:22:55;0.70;;;0.70;;
12689;SDS011;6409;56.294;14.480;2023-06-14T05:25:23;0.70;;;0.70;;
12689;SDS011;6409;56.294;14.480;2023-06-14T05:27:50;0.70;;;0.70;;
12689;SDS011;6409;56.294;14.480;2023-06-14T05:30:17;0.70;;;0.70;;
12689;SDS011;6409;56.294;14.480;2023-06-14T05:32:44;0.70;;;0.70;;
12689;SDS011;6409;56.294;14.480;2023-06-14T05:35:11;0.70;;;0.70;;
12689;SDS011;6409;56.294;14.480;2023-06-14T05:37:38;0.70;;;0.70;;
12689;SDS011;6409;56.294;14.480;2023-06-14T05:40:05;0.80;;;0.80;;
12689;SDS011;6409;56.294;14.480;2023-06-14T05:42:35;0.80;;;0.80;;
12689;SDS011;6409;56.294;14.480;2023-06-14T05:45:02;0.80;;;0.80;;
12689;SDS011;6409;56.294;14.480;2023-06-14T05:47:31;0.80;;;0.80;;
12689;SDS011;6409;56.294;14.480;2023-06-14T05:49:58;0.80;;;0.80;;
12689;SDS011;6409;56.294;14.480;2023-06-14T05:52:24;0.90;;;0.90;;
12689;SDS011;6409;56.294;14.480;2023-06-14T05:54:51;0.90;;;0.90;;
12689;SDS011;6409;56.294;14.480;2023-06-14T05:57:18;0.90;;;0.90;;
12689;SDS011;6409;56.294;14.480;2023-06-14T05:59:47;1.30;;;1.30;;
12689;SDS011;6409;56.294;14.480;2023-06-14T06:02:13;1.50;;;1.50;;
12689;SDS011;6409;56.294;14.480;2023-06-14T06:04:40;1.70;;;1.70;;
12689;SDS011;6409;56.294;14.480;2023-06-14T06:07:07;1.70;;;1.70;;
12689;SDS011;6409;56.294;14.480;2023-06-14T06:09:34;1.70;;;1.70;;
12689;SDS011;6409;56.294;14.480;2023-06-14T06:12:01;1.80;;;1.80;;
12689;SDS011;6409;56.294;14.480;2023-06-14T06:14:29;1.80;;;1.80;;
12689;SDS011;6409;56.294;14.480;2023-06-14T06:16:59;2.40;;;2.30;;
12689;SDS011;6409;56.294;14.480;2023-06-14T06:19:26;2.40;;;2.30;;
12689;SDS011;6409;56.294;14.480;2023-06-14T06:21:54;2.30;;;2.30;;
12689;SDS011;6409;56.294;14.480;2023-06-14T06:24:21;2.35;;;2.30;;
12689;SDS011;6409;56.294;14.480;2023-06-14T06:26:48;2.40;;;2.30;;
12689;SDS011;6409;56.294;14.480;2023-06-14T06:29:15;2.50;;;2.40;;
12689;SDS011;6409;56.294;14.480;2023-06-14T06:31:42;2.60;;;2.50;;
12689;SDS011;6409;56.294;14.480;2023-06-14T06:34:12;2.70;;;2.60;;
12689;SDS011;6409;56.294;14.480;2023-06-14T06:36:38;2.20;;;2.20;;
12689;SDS011;6409;56.294;14.480;2023-06-14T06:39:05;2.20;;;2.20;;
12689;SDS011;6409;56.294;14.480;2023-06-14T06:41:35;2.20;;;2.20;;
12689;SDS011;6409;56.294;14.480;2023-06-14T06:44:03;2.20;;;2.20;;
12689;SDS011;6409;56.294;14.480;2023-06-14T06:46:31;2.30;;;2.30;;
12689;SDS011;6409;56.294;14.480;2023-06-14T06:48:58;2.00;;;2.00;;
12689;SDS011;6409;56.294;14.480;2023-06-14T06:51:26;2.00;;;2.00;;
12689;SDS011;6409;56.294;14.480;2023-06-14T06:53:53;2.00;;;2.00;;
12689;SDS011;6409;56.294;14.480;2023-06-14T06:56:20;2.00;;;2.00;;
12689;SDS011;6409;56.294;14.480;2023-06-14T06:58:48;2.00;;;2.00;;
12689;SDS011;6409;56.294;14.480;2023-06-14T07:01:15;2.00;;;2.00;;
12689;SDS011;6409;56.294;14.480;2023-06-14T07:03:42;1.98;;;1.98;;
12689;SDS011;6409;56.294;14.480;2023-06-14T07:06:09;1.90;;;1.90;;
12689;SDS011;6409;56.294;14.480;2023-06-14T07:08:37;2.10;;;2.10;;
12689;SDS011;6409;56.294;14.480;2023-06-14T07:11:04;2.00;;;2.00;;
12689;SDS011;6409;56.294;14.480;2023-06-14T07:13:32;2.17;;;2.17;;
12689;SDS011;6409;56.294;14.480;2023-06-14T07:15:59;2.10;;;2.10;;
12689;SDS011;6409;56.294;14.480;2023-06-14T07:18:27;2.10;;;2.10;;
12689;SDS011;6409;56.294;14.480;2023-06-14T07:20:54;2.00;;;2.00;;
12689;SDS011;6409;56.294;14.480;2023-06-14T07:23:21;2.00;;;2.00;;
12689;SDS011;6409;56.294;14.480;2023-06-14T07:25:49;2.00;;;2.00;;
12689;SDS011;6409;56.294;14.480;2023-06-14T07:28:16;1.90;;;1.90;;
12689;SDS011;6409;56.294;14.480;2023-06-14T07:30:43;2.00;;;2.00;;
12689;SDS011;6409;56.294;14.480;2023-06-14T07:33:10;2.10;;;2.10;;
12689;SDS011;6409;56.294;14.480;2023-06-14T07:35:37;2.10;;;2.10;;
12689;SDS011;6409;56.294;14.480;2023-06-14T07:38:04;2.10;;;2.10;;
12689;SDS011;6409;56.294;14.480;2023-06-14T07:40:31;2.10;;;2.10;;
12689;SDS011;6409;56.294;14.480;2023-06-14T07:42:59;2.25;;;2.25;;
12689;SDS011;6409;56.294;14.480;2023-06-14T07:45:27;2.50;;;2.40;;
12689;SDS011;6409;56.294;14.480;2023-06-14T07:47:54;2.30;;;2.30;;
12689;SDS011;6409;56.294;14.480;2023-06-14T07:50:21;2.50;;;2.40;;
12689;SDS011;6409;56.294;14.480;2023-06-14T07:52:48;2.20;;;2.20;;
12689;SDS011;6409;56.294;14.480;2023-06-14T07:55:15;2.50;;;2.40;;
12689;SDS011;6409;56.294;14.480;2023-06-14T07:57:42;2.50;;;2.40;;
12689;SDS011;6409;56.294;14.480;2023-06-14T08:00:12;2.20;;;2.20;;
12689;SDS011;6409;56.294;14.480;2023-06-14T08:02:40;2.30;;;2.30;;
12689;SDS011;6409;56.294;14.480;2023-06-14T08:05:08;2.20;;;2.20;;
12689;SDS011;6409;56.294;14.480;2023-06-14T08:07:35;2.20;;;2.20;;
12689;SDS011;6409;56.294;14.480;2023-06-14T08:10:02;2.47;;;2.38;;
12689;SDS011;6409;56.294;14.480;2023-06-14T08:12:30;2.50;;;2.40;;
12689;SDS011;6409;56.294;14.480;2023-06-14T08:14:57;2.30;;;2.30;;
12689;SDS011;6409;56.294;14.480;2023-06-14T08:17:25;2.25;;;2.25;;
12689;SDS011;6409;56.294;14.480;2023-06-14T08:19:53;2.53;;;2.42;;
12689;SDS011;6409;56.294;14.480;2023-06-14T08:22:22;2.50;;;2.40;;
12689;SDS011;6409;56.294;14.480;2023-06-14T08:24:49;2.50;;;2.40;;
12689;SDS011;6409;56.294;14.480;2023-06-14T08:27:18;2.60;;;2.50;;
12689;SDS011;6409;56.294;14.480;2023-06-14T08:29:45;2.60;;;2.50;;
12689;SDS011;6409;56.294;14.480;2023-06-14T08:32:12;2.60;;;2.50;;
12689;SDS011;6409;56.294;14.480;2023-06-14T08:34:40;2.70;;;2.60;;
12689;SDS011;6409;56.294;14.480;2023-06-14T08:37:07;2.50;;;2.40;;
12689;SDS011;6409;56.294;14.480;2023-06-14T08:39:34;2.60;;;2.50;;
12689;SDS011;6409;56.294;14.480;2023-06-14T08:42:01;2.60;;;2.50;;
12689;SDS011;6409;56.294;14.480;2023-06-14T08:44:28;2.60;;;2.50;;
12689;SDS011;6409;56.294;14.480;2023-06-14T08:46:56;2.70;;;2.60;;
12689;SDS011;6409;56.294;14.480;2023-06-14T08:49:23;2.50;;;2.40;;
12689;SDS011;6409;56.294;14.480;2023-06-14T08:51:54;2.70;;;2.60;;
12689;SDS011;6409;56.294;14.480;2023-06-14T08:54:25;2.60;;;2.50;;
12689;SDS011;6409;56.294;14.480;2023-06-14T08:56:52;2.60;;;2.50;;
12689;SDS011;6409;56.294;14.480;2023-06-14T08:59:22;3.00;;;2.90;;
12689;SDS011;6409;56.294;14.480;2023-06-14T09:01:51;3.10;;;3.00;;
12689;SDS011;6409;56.294;14.480;2023-06-14T09:04:19;3.10;;;3.00;;
12689;SDS011;6409;56.294;14.480;2023-06-14T09:06:46;3.05;;;2.95;;
12689;SDS011;6409;56.294;14.480;2023-06-14T09:09:19;3.00;;;2.90;;
12689;SDS011;6409;56.294;14.480;2023-06-14T09:11:46;3.00;;;2.90;;
12689;SDS011;6409;56.294;14.480;2023-06-14T09:14:13;3.10;;;3.00;;
12689;SDS011;6409;56.294;14.480;2023-06-14T09:16:40;3.50;;;3.40;;
12689;SDS011;6409;56.294;14.480;2023-06-14T09:19:07;3.80;;;3.70;;
12689;SDS011;6409;56.294;14.480;2023-06-14T09:21:34;3.70;;;3.60;;
12689;SDS011;6409;56.294;14.480;2023-06-14T09:24:02;3.60;;;3.50;;
12689;SDS011;6409;56.294;14.480;2023-06-14T09:26:32;3.80;;;3.70;;
12689;SDS011;6409;56.294;14.480;2023-06-14T09:28:59;3.90;;;3.80;;
12689;SDS011;6409;56.294;14.480;2023-06-14T09:31:26;3.72;;;3.63;;
12689;SDS011;6409;56.294;14.480;2023-06-14T09:33:56;3.97;;;3.88;;
12689;SDS011;6409;56.294;14.480;2023-06-14T09:36:24;3.20;;;3.10;;
12689;SDS011;6409;56.294;14.480;2023-06-14T09:38:51;3.00;;;2.90;;
12689;SDS011;6409;56.294;14.480;2023-06-14T09:41:19;2.97;;;2.88;;
12689;SDS011;6409;56.294;14.480;2023-06-14T09:43:47;3.00;;;2.90;;
12689;SDS011;6409;56.294;14.480;2023-06-14T09:46:15;3.00;;;2.90;;
12689;SDS011;6409;56.294;14.480;2023-06-14T09:48:42;3.00;;;2.90;;
12689;SDS011;6409;56.294;14.480;2023-06-14T09:51:10;2.88;;;2.78;;
12689;SDS011;6409;56.294;14.480;2023-06-14T09:53:37;2.80;;;2.70;;
12689;SDS011;6409;56.294;14.480;2023-06-14T09:56:05;2.80;;;2.70;;
12689;SDS011;6409;56.294;14.480;2023-06-14T09:58:32;2.90;;;2.80;;
12689;SDS011;6409;56.294;14.480;2023-06-14T10:01:03;2.80;;;2.70;;
12689;SDS011;6409;56.294;14.480;2023-06-14T10:03:31;2.80;;;2.70;;
12689;SDS011;6409;56.294;14.480;2023-06-14T10:05:59;2.80;;;2.70;;
12689;SDS011;6409;56.294;14.480;2023-06-14T10:08:30;2.90;;;2.80;;
12689;SDS011;6409;56.294;14.480;2023-06-14T10:10:58;3.00;;;2.90;;
12689;SDS011;6409;56.294;14.480;2023-06-14T10:13:25;3.03;;;2.92;;
12689;SDS011;6409;56.294;14.480;2023-06-14T10:15:54;3.00;;;2.90;;
12689;SDS011;6409;56.294;14.480;2023-06-14T10:18:31;3.00;;;2.90;;
12689;SDS011;6409;56.294;14.480;2023-06-14T10:21:06;3.10;;;3.00;;
12689;SDS011;6409;56.294;14.480;2023-06-14T10:23:40;3.00;;;2.90;;
12689;SDS011;6409;56.294;14.480;2023-06-14T10:26:08;2.63;;;2.53;;
12689;SDS011;6409;56.294;14.480;2023-06-14T10:28:37;2.72;;;2.63;;
12689;SDS011;6409;56.294;14.480;2023-06-14T10:31:05;2.95;;;2.85;;
12689;SDS011;6409;56.294;14.480;2023-06-14T10:33:34;3.00;;;2.90;;
12689;SDS011;6409;56.294;14.480;2023-06-14T10:39:05;2.92;;;2.83;;
12689;SDS011;6409;56.294;14.480;2023-06-14T10:41:34;2.90;;;2.80;;
12689;SDS011;6409;56.294;14.480;2023-06-14T10:47:00;2.90;;;2.80;;
12689;SDS011;6409;56.294;14.480;2023-06-14T10:49:38;3.00;;;2.90;;
12689;SDS011;6409;56.294;14.480;2023-06-14T10:52:07;2.90;;;2.80;;
12689;SDS011;6409;56.294;14.480;2023-06-14T10:54:54;2.80;;;2.70;;
12689;SDS011;6409;56.294;14.480;2023-06-14T10:57:22;2.90;;;2.80;;
12689;SDS011;6409;56.294;14.480;2023-06-14T10:59:50;2.90;;;2.80;;
12689;SDS011;6409;56.294;14.480;2023-06-14T11:02:21;2.90;;;2.80;;
12689;SDS011;6409;56.294;14.480;2023-06-14T11:05:20;2.80;;;2.70;;
12689;SDS011;6409;56.294;14.480;2023-06-14T11:07:58;2.80;;;2.70;;
12689;SDS011;6409;56.294;14.480;2023-06-14T11:10:43;2.80;;;2.70;;
12689;SDS011;6409;56.294;14.480;2023-06-14T11:13:11;2.80;;;2.70;;
12689;SDS011;6409;56.294;14.480;2023-06-14T11:15:38;2.80;;;2.70;;
12689;SDS011;6409;56.294;14.480;2023-06-14T11:18:10;2.80;;;2.70;;
12689;SDS011;6409;56.294;14.480;2023-06-14T11:20:40;2.90;;;2.80;;
12689;SDS011;6409;56.294;14.480;2023-06-14T11:23:07;2.60;;;2.50;;
12689;SDS011;6409;56.294;14.480;2023-06-14T11:25:34;2.78;;;2.67;;
12689;SDS011;6409;56.294;14.480;2023-06-14T11:28:01;2.70;;;2.60;;
12689;SDS011;6409;56.294;14.480;2023-06-14T11:30:28;2.70;;;2.60;;
12689;SDS011;6409;56.294;14.480;2023-06-14T11:32:55;2.90;;;2.80;;
12689;SDS011;6409;56.294;14.480;2023-06-14T11:35:22;2.90;;;2.80;;
12689;SDS011;6409;56.294;14.480;2023-06-14T11:37:53;2.80;;;2.70;;
12689;SDS011;6409;56.294;14.480;2023-06-14T11:40:23;2.80;;;2.70;;
12689;SDS011;6409;56.294;14.480;2023-06-14T11:42:54;2.80;;;2.70;;
12689;SDS011;6409;56.294;14.480;2023-06-14T11:45:24;2.80;;;2.70;;
12689;SDS011;6409;56.294;14.480;2023-06-14T11:47:54;2.80;;;2.70;;
12689;SDS011;6409;56.294;14.480;2023-06-14T11:50:21;2.80;;;2.70;;
12689;SDS011;6409;56.294;14.480;2023-06-14T11:52:51;2.80;;;2.70;;
12689;SDS011;6409;56.294;14.480;2023-06-14T11:55:21;2.80;;;2.70;;
12689;SDS011;6409;56.294;14.480;2023-06-14T11:57:48;2.65;;;2.55;;
12689;SDS011;6409;56.294;14.480;2023-06-14T12:00:16;2.80;;;2.70;;
12689;SDS011;6409;56.294;14.480;2023-06-14T12:02:52;2.72;;;2.63;;
12689;SDS011;6409;56.294;14.480;2023-06-14T12:05:21;2.70;;;2.60;;
12689;SDS011;6409;56.294;14.480;2023-06-14T12:07:48;2.80;;;2.70;;
12689;SDS011;6409;56.294;14.480;2023-06-14T12:10:20;2.70;;;2.60;;
12689;SDS011;6409;56.294;14.480;2023-06-14T12:12:47;2.70;;;2.60;;
12689;SDS011;6409;56.294;14.480;2023-06-14T12:15:15;2.80;;;2.70;;
12689;SDS011;6409;56.294;14.480;2023-06-14T12:17:43;3.20;;;3.10;;
12689;SDS011;6409;56.294;14.480;2023-06-14T12:20:12;3.30;;;3.20;;
12689;SDS011;6409;56.294;14.480;2023-06-14T12:22:47;3.40;;;3.30;;
12689;SDS011;6409;56.294;14.480;2023-06-14T12:25:28;3.40;;;3.30;;
12689;SDS011;6409;56.294;14.480;2023-06-14T12:27:57;3.33;;;3.22;;
12689;SDS011;6409;56.294;14.480;2023-06-14T12:30:25;3.60;;;3.50;;
12689;SDS011;6409;56.294;14.480;2023-06-14T12:32:53;3.70;;;3.60;;
12689;SDS011;6409;56.294;14.480;2023-06-14T12:35:20;3.70;;;3.60;;
12689;SDS011;6409;56.294;14.480;2023-06-14T12:37:47;2.60;;;2.50;;
12689;SDS011;6409;56.294;14.480;2023-06-14T12:40:14;2.80;;;2.70;;
12689;SDS011;6409;56.294;14.480;2023-06-14T12:42:44;2.70;;;2.60;;
12689;SDS011;6409;56.294;14.480;2023-06-14T12:45:12;2.90;;;2.80;;
12689;SDS011;6409;56.294;14.480;2023-06-14T12:47:39;2.80;;;2.70;;
12689;SDS011;6409;56.294;14.480;2023-06-14T12:50:07;2.90;;;2.80;;
12689;SDS011;6409;56.294;14.480;2023-06-14T12:52:35;2.72;;;2.63;;
12689;SDS011;6409;56.294;14.480;2023-06-14T12:55:03;3.00;;;2.90;;
12689;SDS011;6409;56.294;14.480;2023-06-14T12:57:31;3.00;;;2.90;;
12689;SDS011;6409;56.294;14.480;2023-06-14T13:00:03;2.90;;;2.80;;
12689;SDS011;6409;56.294;14.480;2023-06-14T13:02:32;2.70;;;2.60;;
12689;SDS011;6409;56.294;14.480;2023-06-14T13:05:00;2.80;;;2.70;;
12689;SDS011;6409;56.294;14.480;2023-06-14T13:07:28;2.88;;;2.78;;
12689;SDS011;6409;56.294;14.480;2023-06-14T13:09:55;2.90;;;2.80;;
12689;SDS011;6409;56.294;14.480;2023-06-14T13:12:22;2.70;;;2.60;;
12689;SDS011;6409;56.294;14.480;2023-06-14T13:14:49;2.80;;;2.70;;
12689;SDS011;6409;56.294;14.480;2023-06-14T13:17:17;2.90;;;2.80;;
12689;SDS011;6409;56.294;14.480;2023-06-14T13:19:44;2.80;;;2.70;;
12689;SDS011;6409;56.294;14.480;2023-06-14T13:22:11;2.80;;;2.70;;
12689;SDS011;6409;56.294;14.480;2023-06-14T13:24:38;2.90;;;2.80;;
12689;SDS011;6409;56.294;14.480;2023-06-14T13:27:05;2.97;;;2.88;;
12689;SDS011;6409;56.294;14.480;2023-06-14T13:29:32;2.90;;;2.80;;
12689;SDS011;6409;56.294;14.480;2023-06-14T13:32:01;3.05;;;2.95;;
12689;SDS011;6409;56.294;14.480;2023-06-14T13:34:29;2.90;;;2.80;;
12689;SDS011;6409;56.294;14.480;2023-06-14T13:36:56;3.00;;;2.90;;
12689;SDS011;6409;56.294;14.480;2023-06-14T13:39:24;3.00;;;2.90;;
12689;SDS011;6409;56.294;14.480;2023-06-14T13:41:50;3.10;;;3.00;;
12689;SDS011;6409;56.294;14.480;2023-06-14T13:44:24;3.10;;;3.00;;
12689;SDS011;6409;56.294;14.480;2023-06-14T13:46:51;3.00;;;2.90;;
12689;SDS011;6409;56.294;14.480;2023-06-14T13:49:18;3.15;;;3.05;;
12689;SDS011;6409;56.294;14.480;2023-06-14T13:51:46;3.20;;;3.10;;
12689;SDS011;6409;56.294;14.480;2023-06-14T13:54:13;3.10;;;3.00;;
12689;SDS011;6409;56.294;14.480;2023-06-14T13:56:40;2.90;;;2.80;;
12689;SDS011;6409;56.294;14.480;2023-06-14T13:59:07;2.83;;;2.72;;
12689;SDS011;6409;56.294;14.480;2023-06-14T14:01:34;3.00;;;2.90;;
12689;SDS011;6409;56.294;14.480;2023-06-14T14:04:01;3.00;;;2.90;;
12689;SDS011;6409;56.294;14.480;2023-06-14T14:06:28;2.90;;;2.80;;
12689;SDS011;6409;56.294;14.480;2023-06-14T14:08:56;2.80;;;2.70;;
12689;SDS011;6409;56.294;14.480;2023-06-14T14:11:24;2.97;;;2.88;;
12689;SDS011;6409;56.294;14.480;2023-06-14T14:13:51;2.90;;;2.80;;
12689;SDS011;6409;56.294;14.480;2023-06-14T14:16:17;2.90;;;2.80;;
12689;SDS011;6409;56.294;14.480;2023-06-14T14:18:45;2.88;;;2.78;;
12689;SDS011;6409;56.294;14.480;2023-06-14T14:21:12;2.90;;;2.80;;
12689;SDS011;6409;56.294;14.480;2023-06-14T14:23:39;2.80;;;2.70;;
12689;SDS011;6409;56.294;14.480;2023-06-14T14:26:07;2.90;;;2.80;;
12689;SDS011;6409;56.294;14.480;2023-06-14T14:28:34;3.00;;;2.90;;
12689;SDS011;6409;56.294;14.480;2023-06-14T14:31:01;3.00;;;2.90;;
12689;SDS011;6409;56.294;14.480;2023-06-14T14:33:28;2.90;;;2.80;;
12689;SDS011;6409;56.294;14.480;2023-06-14T14:35:55;2.90;;;2.80;;
12689;SDS011;6409;56.294;14.480;2023-06-14T14:38:22;3.00;;;2.90;;
12689;SDS011;6409;56.294;14.480;2023-06-14T14:40:49;3.00;;;2.90;;
12689;SDS011;6409;56.294;14.480;2023-06-14T14:43:17;2.90;;;2.80;;
12689;SDS011;6409;56.294;14.480;2023-06-14T14:45:44;2.90;;;2.80;;
12689;SDS011;6409;56.294;14.480;2023-06-14T14:48:11;2.90;;;2.80;;
12689;SDS011;6409;56.294;14.480;2023-06-14T14:50:38;3.05;;;2.95;;
12689;SDS011;6409;56.294;14.480;2023-06-14T14:53:05;3.00;;;2.90;;
12689;SDS011;6409;56.294;14.480;2023-06-14T14:55:32;3.10;;;3.00;;
12689;SDS011;6409;56.294;14.480;2023-06-14T14:58:01;2.90;;;2.80;;
12689;SDS011;6409;56.294;14.480;2023-06-14T15:00:30;3.20;;;3.10;;